Time;durP1;ratioP1;P1;durP2;ratioP2;P2;SDS_P1;SDS_P2;PMS_P1;PMS_P2;Temp;Humidity;BMP_temperature;BMP_pressure;BME280_temperature;BME280_humidity;BME280_pressure;Samples;Min_cycle;Max_cycle;Signal;HPM_P1;HPM_P2
2021/06/11 00:00:11;;;;;;;23.90;16.85;;;18.40;99.90;;;;;;5043741;28;20068;-79
2021/06/11 00:02:39;;;;;;;27.60;17.15;;;18.40;99.90;;;;;;5041000;28;20053;-79
2021/06/11 00:05:07;;;;;;;23.60;15.98;;;18.40;99.90;;;;;;5047375;28;20043;-78
2021/06/11 00:07:34;;;;;;;27.17;16.85;;;18.30;99.90;;;;;;5049835;28;20051;-79
2021/06/11 00:10:05;;;;;;;25.50;17.52;;;18.30;99.90;;;;;;5047748;28;20065;-79
2021/06/11 00:12:32;;;;;;;23.08;16.10;;;18.30;99.90;;;;;;5050596;28;20045;-78
2021/06/11 00:14:59;;;;;;;26.83;17.83;;;18.30;99.90;;;;;;5051389;28;20053;-79
2021/06/11 00:17:26;;;;;;;21.98;16.27;;;18.20;99.90;;;;;;5051234;28;20395;-79
2021/06/11 00:19:53;;;;;;;25.98;18.02;;;18.20;99.90;;;;;;5050085;28;20838;-79
2021/06/11 00:22:19;;;;;;;27.27;17.38;;;18.20;99.90;;;;;;5048995;28;20063;-79
2021/06/11 00:24:46;;;;;;;23.58;15.95;;;18.10;99.90;;;;;;5048366;28;20045;-79
2021/06/11 00:27:13;;;;;;;23.45;16.38;;;18.10;99.90;;;;;;5048444;28;20088;-79
2021/06/11 00:29:40;;;;;;;22.27;15.35;;;18.10;99.90;;;;;;5047984;28;20104;-79
2021/06/11 00:32:07;;;;;;;24.75;16.45;;;18.00;99.90;;;;;;5048751;28;20093;-79
2021/06/11 00:34:34;;;;;;;27.02;16.73;;;18.00;99.90;;;;;;5081021;28;20079;-79
2021/06/11 00:37:01;;;;;;;28.58;18.13;;;17.90;99.90;;;;;;5052418;28;20408;-79
2021/06/11 00:39:28;;;;;;;28.77;17.48;;;17.90;99.90;;;;;;5078045;28;20416;-79
2021/06/11 00:41:59;;;;;;;29.40;18.30;;;17.80;99.90;;;;;;5046503;28;20497;-79
2021/06/11 00:44:29;;;;;;;29.73;17.92;;;17.80;99.90;;;;;;5049224;28;20055;-79
2021/06/11 00:46:56;;;;;;;28.83;18.10;;;17.80;99.90;;;;;;5062194;28;20056;-79
2021/06/11 00:49:23;;;;;;;24.77;17.38;;;17.70;99.90;;;;;;5047459;28;20071;-79
2021/06/11 00:51:50;;;;;;;25.25;16.90;;;17.70;99.90;;;;;;5049400;28;20466;-78
2021/06/11 00:54:17;;;;;;;28.85;17.73;;;17.70;99.90;;;;;;5046371;28;20062;-79
2021/06/11 00:56:44;;;;;;;24.63;16.27;;;17.60;99.90;;;;;;5072074;28;20059;-79
2021/06/11 00:59:11;;;;;;;24.92;15.85;;;17.60;99.90;;;;;;5081487;28;20055;-78
2021/06/11 01:01:42;;;;;;;23.73;14.85;;;17.60;99.90;;;;;;5048316;28;20122;-78
2021/06/11 01:04:09;;;;;;;25.92;16.90;;;17.50;99.90;;;;;;5046729;28;20045;-78
2021/06/11 01:06:39;;;;;;;31.48;18.17;;;17.50;99.90;;;;;;5044526;28;20061;-78
2021/06/11 01:09:07;;;;;;;26.48;16.50;;;17.50;99.90;;;;;;5047474;28;20052;-78
2021/06/11 01:11:37;;;;;;;25.42;17.05;;;17.40;99.90;;;;;;5046255;28;20624;-78
2021/06/11 01:14:06;;;;;;;29.00;18.95;;;17.40;99.90;;;;;;5056018;28;20040;-79
2021/06/11 01:16:33;;;;;;;29.45;19.33;;;17.30;99.90;;;;;;5063846;28;20118;-78
2021/06/11 01:19:00;;;;;;;27.15;18.77;;;17.30;99.90;;;;;;5082300;28;20069;-78
2021/06/11 01:21:31;;;;;;;31.48;18.73;;;17.20;99.90;;;;;;5046503;28;20080;-78
2021/06/11 01:24:16;;;;;;;25.02;17.42;;;17.20;99.90;;;;;;5053385;28;20105;-78
2021/06/11 01:26:56;;;;;;;30.88;20.35;;;17.10;99.90;;;;;;5057878;28;20116;-78
2021/06/11 01:29:27;;;;;;;33.38;19.05;;;17.20;99.90;;;;;;5050734;28;20051;-78
2021/06/11 01:31:57;;;;;;;29.83;17.60;;;17.20;99.90;;;;;;5079638;28;20080;-79
2021/06/11 01:34:36;;;;;;;36.78;20.48;;;17.10;99.90;;;;;;5056150;28;20045;-78
2021/06/11 01:37:13;;;;;;;26.77;18.67;;;17.10;99.90;;;;;;5073288;28;20053;-78
2021/06/11 01:39:43;;;;;;;32.13;19.05;;;17.10;99.90;;;;;;5074116;28;20109;-78
2021/06/11 01:42:11;;;;;;;28.42;18.40;;;17.10;99.90;;;;;;5058007;28;20113;-78
2021/06/11 01:44:40;;;;;;;28.20;19.63;;;17.10;99.90;;;;;;5048581;28;20053;-78
2021/06/11 01:47:08;;;;;;;27.85;18.90;;;17.00;99.90;;;;;;5044055;28;20063;-80
2021/06/11 01:49:35;;;;;;;32.25;19.55;;;17.00;99.90;;;;;;5062256;28;20057;-80
2021/06/11 01:52:04;;;;;;;31.75;19.73;;;17.00;99.90;;;;;;5046976;28;20981;-79
2021/06/11 01:54:32;;;;;;;28.33;19.48;;;17.00;99.90;;;;;;5061763;28;20049;-77
2021/06/11 01:57:00;;;;;;;36.15;22.40;;;16.90;99.90;;;;;;5042097;28;20053;-78
2021/06/11 01:59:27;;;;;;;37.75;23.38;;;16.90;99.90;;;;;;5061338;28;20139;-78
2021/06/11 02:01:56;;;;;;;35.25;22.05;;;16.90;99.90;;;;;;5039305;28;20053;-79
2021/06/11 02:04:23;;;;;;;34.15;22.27;;;16.90;99.90;;;;;;5045317;28;20526;-79
2021/06/11 02:06:51;;;;;;;38.30;22.73;;;16.90;99.90;;;;;;5047214;28;20048;-79
2021/06/11 02:09:20;;;;;;;31.67;21.52;;;16.90;99.90;;;;;;5046260;28;20042;-79
2021/06/11 02:11:48;;;;;;;36.03;22.95;;;16.80;99.90;;;;;;5044560;28;20052;-78
2021/06/11 02:14:16;;;;;;;37.00;23.02;;;16.80;99.90;;;;;;5047036;28;20049;-78
2021/06/11 02:16:44;;;;;;;37.10;23.02;;;16.80;99.90;;;;;;5046404;28;20048;-79
2021/06/11 02:19:13;;;;;;;43.13;24.60;;;16.70;99.90;;;;;;5038755;28;20045;-79
2021/06/11 02:21:41;;;;;;;41.33;25.02;;;16.70;99.90;;;;;;5048834;28;20084;-79
2021/06/11 02:24:08;;;;;;;41.03;23.77;;;16.70;99.90;;;;;;5044986;28;20049;-79
2021/06/11 02:26:37;;;;;;;42.45;24.52;;;16.60;99.90;;;;;;5040986;28;20136;-79
2021/06/11 02:29:04;;;;;;;35.25;22.10;;;16.60;99.90;;;;;;5053632;28;20057;-79
2021/06/11 02:31:34;;;;;;;42.30;26.52;;;16.50;99.90;;;;;;5042628;28;20129;-78
2021/06/11 02:34:02;;;;;;;44.78;24.40;;;16.50;99.90;;;;;;5044506;28;20075;-79
2021/06/11 02:36:31;;;;;;;41.53;25.77;;;16.50;99.90;;;;;;5080958;28;20055;-79
2021/06/11 02:38:57;;;;;;;43.83;26.77;;;16.40;99.90;;;;;;5044140;28;20046;-79
2021/06/11 02:41:28;;;;;;;43.08;26.27;;;16.40;99.90;;;;;;5052499;28;20055;-79
2021/06/11 02:43:56;;;;;;;44.53;26.75;;;16.40;99.90;;;;;;5063132;28;20120;-79
2021/06/11 02:46:33;;;;;;;47.45;26.70;;;16.40;99.90;;;;;;5044934;28;20065;-79
2021/06/11 02:49:15;;;;;;;49.20;27.00;;;16.40;99.90;;;;;;5046386;28;20124;-80
2021/06/11 02:52:04;;;;;;;42.15;25.65;;;16.30;99.90;;;;;;5078098;28;20064;-79
2021/06/11 02:54:35;;;;;;;41.38;25.10;;;16.30;99.90;;;;;;5047161;28;20051;-78
2021/06/11 02:57:08;;;;;;;48.22;27.40;;;16.30;99.90;;;;;;5043944;28;20420;-79
2021/06/11 02:59:42;;;;;;;46.35;26.73;;;16.30;99.90;;;;;;5043964;28;20075;-79
2021/06/11 03:02:11;;;;;;;50.75;26.65;;;16.30;99.90;;;;;;5042141;28;20053;-79
2021/06/11 03:04:44;;;;;;;49.30;28.13;;;16.30;99.90;;;;;;5051524;28;24916;-79
2021/06/11 03:07:22;;;;;;;47.53;28.25;;;16.30;99.90;;;;;;5079236;28;20052;-79
2021/06/11 03:09:51;;;;;;;46.50;26.73;;;16.30;99.90;;;;;;5077277;28;20128;-79
2021/06/11 03:12:18;;;;;;;48.17;27.02;;;16.20;99.90;;;;;;5044673;28;20049;-78
2021/06/11 03:14:46;;;;;;;57.17;30.92;;;16.20;99.90;;;;;;5046225;28;20053;-79
2021/06/11 03:17:16;;;;;;;51.80;27.95;;;16.20;99.90;;;;;;5043155;28;20480;-77
2021/06/11 03:19:50;;;;;;;49.38;28.90;;;16.20;99.90;;;;;;5030606;28;20049;-78
2021/06/11 03:22:26;;;;;;;56.80;29.98;;;16.10;99.90;;;;;;5044959;28;20053;-78
2021/06/11 03:24:59;;;;;;;59.17;30.88;;;16.10;99.90;;;;;;5039900;28;20051;-77
2021/06/11 03:27:39;;;;;;;58.65;31.25;;;16.10;99.90;;;;;;5051431;28;20484;-78
2021/06/11 03:30:09;;;;;;;60.60;32.25;;;16.00;99.90;;;;;;5077177;28;20063;-78
2021/06/11 03:32:45;;;;;;;59.70;31.40;;;16.00;99.90;;;;;;5060181;28;20049;-78
2021/06/11 03:35:20;;;;;;;58.88;31.13;;;16.00;99.90;;;;;;5047223;28;20059;-81
2021/06/11 03:37:51;;;;;;;54.38;31.08;;;16.00;99.90;;;;;;5060555;28;20045;-78
2021/06/11 03:40:28;;;;;;;55.63;30.23;;;16.00;99.90;;;;;;5051768;28;20072;-78
2021/06/11 03:42:56;;;;;;;57.95;30.95;;;16.00;99.90;;;;;;5056664;28;20049;-78
2021/06/11 03:45:24;;;;;;;61.15;30.98;;;16.00;99.90;;;;;;5043233;28;20041;-78
2021/06/11 03:47:52;;;;;;;57.97;30.75;;;16.00;99.90;;;;;;5043194;28;20429;-78
2021/06/11 03:50:23;;;;;;;62.47;34.42;;;16.00;99.90;;;;;;5043044;28;20064;-78
2021/06/11 03:52:53;;;;;;;63.58;31.35;;;16.00;99.90;;;;;;5042622;28;20055;-78
2021/06/11 03:55:24;;;;;;;65.82;33.58;;;16.00;99.90;;;;;;5042563;28;20401;-78
2021/06/11 03:57:59;;;;;;;60.67;32.72;;;16.00;99.90;;;;;;5043111;28;20132;-79
2021/06/11 04:00:29;;;;;;;57.55;31.05;;;16.00;99.90;;;;;;5038251;28;20052;-78
2021/06/11 04:02:56;;;;;;;57.92;32.28;;;16.10;99.90;;;;;;5042287;28;20037;-78
2021/06/11 04:05:23;;;;;;;63.28;32.53;;;16.10;99.90;;;;;;5040530;28;20127;-78
2021/06/11 04:07:58;;;;;;;55.58;29.98;;;16.10;99.90;;;;;;5043272;28;21556;-78
2021/06/11 04:10:45;;;;;;;58.97;31.30;;;16.10;99.90;;;;;;5079362;28;20132;-78
2021/06/11 04:13:23;;;;;;;59.60;31.08;;;16.10;99.90;;;;;;5078618;28;20049;-78
2021/06/11 04:15:52;;;;;;;59.75;32.78;;;16.10;99.90;;;;;;5047577;28;20060;-79
2021/06/11 04:18:25;;;;;;;57.58;30.67;;;16.20;99.90;;;;;;5043031;28;20085;-78
2021/06/11 04:20:56;;;;;;;57.28;31.20;;;16.30;99.90;;;;;;5049030;28;20045;-78
2021/06/11 04:23:26;;;;;;;58.70;31.45;;;16.40;99.90;;;;;;5075064;28;20049;-78
2021/06/11 04:25:55;;;;;;;65.45;32.10;;;16.50;99.90;;;;;;5042494;28;20053;-79
2021/06/11 04:28:23;;;;;;;54.50;30.63;;;16.50;99.90;;;;;;5043222;28;20057;-79
2021/06/11 04:30:52;;;;;;;54.97;29.40;;;16.60;99.90;;;;;;5042141;28;20133;-79
2021/06/11 04:33:23;;;;;;;65.70;34.45;;;16.60;99.90;;;;;;5043181;28;20528;-79
2021/06/11 04:35:50;;;;;;;57.35;31.27;;;16.70;99.90;;;;;;5050554;28;20056;-78
2021/06/11 04:38:18;;;;;;;55.13;29.25;;;16.80;99.90;;;;;;5042807;28;20417;-78
2021/06/11 04:40:45;;;;;;;57.70;30.48;;;16.80;99.90;;;;;;5042278;28;20045;-78
2021/06/11 04:43:12;;;;;;;56.00;31.30;;;16.90;99.90;;;;;;5046265;28;20644;-78
2021/06/11 04:45:39;;;;;;;53.05;30.33;;;17.00;99.90;;;;;;5045417;28;20507;-78
2021/06/11 04:48:07;;;;;;;49.60;28.73;;;17.10;99.90;;;;;;5044636;28;20064;-79
2021/06/11 04:50:35;;;;;;;62.38;30.35;;;17.20;99.90;;;;;;5047886;28;20049;-79
2021/06/11 04:53:02;;;;;;;56.80;30.48;;;17.30;99.90;;;;;;5046332;28;20046;-79
2021/06/11 04:55:29;;;;;;;52.83;29.55;;;17.40;99.90;;;;;;5049419;28;20108;-78
2021/06/11 04:57:56;;;;;;;57.17;29.33;;;17.50;99.90;;;;;;5060369;28;20415;-79
2021/06/11 05:00:26;;;;;;;54.33;30.27;;;17.60;99.90;;;;;;5049593;28;20053;-79
2021/06/11 05:02:53;;;;;;;54.17;28.70;;;17.70;99.90;;;;;;5048084;28;20554;-79
2021/06/11 05:05:20;;;;;;;55.17;28.42;;;17.80;99.90;;;;;;5046580;28;20050;-79
2021/06/11 05:07:47;;;;;;;50.65;27.27;;;17.90;99.90;;;;;;5045816;28;20068;-78
2021/06/11 05:10:14;;;;;;;53.15;28.77;;;18.00;99.90;;;;;;5082913;28;20055;-78
2021/06/11 05:12:41;;;;;;;50.22;26.20;;;18.10;99.90;;;;;;5044364;28;20776;-78
2021/06/11 05:15:09;;;;;;;51.30;26.05;;;18.10;99.90;;;;;;5079860;28;20132;-79
2021/06/11 05:17:36;;;;;;;59.72;26.50;;;18.20;99.90;;;;;;5046562;28;20046;-78
2021/06/11 05:20:03;;;;;;;49.55;25.75;;;18.30;99.90;;;;;;5063848;28;20124;-78
2021/06/11 05:22:30;;;;;;;49.80;25.70;;;18.40;99.90;;;;;;5060865;28;20053;-78
2021/06/11 05:24:59;;;;;;;41.85;23.60;;;18.50;99.90;;;;;;5043761;28;20056;-79
2021/06/11 05:27:26;;;;;;;37.85;21.80;;;18.60;99.90;;;;;;5052676;28;20057;-79
2021/06/11 05:29:53;;;;;;;43.22;22.27;;;18.60;99.90;;;;;;5080650;28;20392;-78
2021/06/11 05:32:19;;;;;;;45.80;24.10;;;18.70;99.90;;;;;;5063124;28;20098;-78
2021/06/11 05:34:46;;;;;;;49.33;24.67;;;18.80;99.90;;;;;;5052497;28;20048;-78
2021/06/11 05:37:13;;;;;;;45.95;23.98;;;18.80;99.90;;;;;;5047810;28;20047;-78
2021/06/11 05:39:40;;;;;;;43.28;22.60;;;18.90;99.90;;;;;;5049114;28;20115;-79
2021/06/11 05:42:07;;;;;;;37.20;21.00;;;19.00;99.90;;;;;;5049427;28;20091;-79
2021/06/11 05:44:34;;;;;;;40.22;20.15;;;19.10;99.90;;;;;;5062613;28;20063;-78
2021/06/11 05:47:00;;;;;;;35.70;20.48;;;19.20;99.90;;;;;;5049340;28;20045;-78
2021/06/11 05:49:27;;;;;;;33.70;19.50;;;19.30;99.90;;;;;;5048818;28;21558;-78
2021/06/11 05:51:54;;;;;;;35.10;19.85;;;19.40;99.90;;;;;;5045606;28;20101;-79
2021/06/11 05:54:20;;;;;;;34.40;19.55;;;19.50;99.90;;;;;;5047283;28;20051;-78
2021/06/11 05:56:48;;;;;;;37.85;17.98;;;19.60;99.90;;;;;;5047566;28;20051;-79
2021/06/11 05:59:15;;;;;;;30.55;17.90;;;19.70;99.90;;;;;;5048605;28;20059;-78
2021/06/11 06:01:41;;;;;;;29.02;17.33;;;19.90;99.90;;;;;;5043598;28;20393;-79
2021/06/11 06:04:08;;;;;;;26.92;15.48;;;20.00;99.90;;;;;;5077723;28;20523;-78
2021/06/11 06:06:35;;;;;;;28.70;16.60;;;20.10;99.90;;;;;;5047773;28;20055;-79
2021/06/11 06:09:02;;;;;;;25.25;15.85;;;20.20;99.90;;;;;;5048401;28;20053;-79
2021/06/11 06:11:29;;;;;;;24.77;16.27;;;20.20;99.90;;;;;;5044926;28;20080;-79
2021/06/11 06:13:55;;;;;;;28.27;17.48;;;20.30;99.90;;;;;;5039154;28;20045;-79
2021/06/11 06:16:22;;;;;;;25.20;14.98;;;20.30;99.90;;;;;;5052725;28;20065;-78
2021/06/11 06:18:49;;;;;;;27.35;16.35;;;20.40;99.90;;;;;;5045476;28;20053;-78
2021/06/11 06:21:15;;;;;;;28.13;16.25;;;20.50;99.90;;;;;;5049648;28;20056;-78
2021/06/11 06:23:42;;;;;;;30.02;17.17;;;20.60;99.90;;;;;;5046460;28;20050;-78
2021/06/11 06:26:09;;;;;;;28.40;15.98;;;20.70;99.90;;;;;;5045165;28;20072;-78
2021/06/11 06:28:36;;;;;;;28.60;16.65;;;20.90;99.90;;;;;;5040678;28;20052;-79
2021/06/11 06:31:03;;;;;;;26.30;16.58;;;21.10;99.90;;;;;;5045896;28;20047;-79
2021/06/11 06:33:30;;;;;;;26.33;16.08;;;21.40;99.90;;;;;;5046714;28;20137;-78
2021/06/11 06:35:56;;;;;;;29.95;16.45;;;21.70;99.90;;;;;;5042849;28;20104;-79
2021/06/11 06:38:25;;;;;;;26.20;16.63;;;21.90;99.90;;;;;;5045423;28;20053;-79
2021/06/11 06:40:59;;;;;;;29.25;17.38;;;22.00;99.90;;;;;;5044941;28;20044;-78
2021/06/11 06:43:30;;;;;;;28.00;17.42;;;22.00;99.90;;;;;;5036169;28;20056;-79
2021/06/11 06:45:57;;;;;;;28.13;16.27;;;22.00;99.90;;;;;;5046027;28;20155;-79
2021/06/11 06:48:24;;;;;;;28.13;17.17;;;22.00;99.90;;;;;;5069249;28;20103;-79
2021/06/11 06:50:54;;;;;;;24.85;17.00;;;22.10;99.90;;;;;;5045559;28;20064;-79
2021/06/11 06:53:21;;;;;;;31.30;17.55;;;22.10;99.90;;;;;;5047259;28;20145;-78
2021/06/11 06:55:48;;;;;;;30.88;18.48;;;22.00;99.90;;;;;;5044157;28;20131;-78
2021/06/11 06:58:15;;;;;;;28.65;17.75;;;21.90;99.90;;;;;;5046230;28;20060;-78
2021/06/11 07:00:41;;;;;;;25.40;16.88;;;21.80;99.90;;;;;;5047577;28;20063;-79
2021/06/11 07:03:08;;;;;;;25.73;17.52;;;21.80;99.90;;;;;;5044520;28;20053;-79
2021/06/11 07:05:35;;;;;;;27.25;17.75;;;21.90;99.90;;;;;;5043174;28;20051;-79
2021/06/11 07:08:02;;;;;;;25.00;17.50;;;21.90;99.90;;;;;;5046735;28;20120;-78
2021/06/11 07:10:29;;;;;;;28.15;18.45;;;22.00;99.90;;;;;;5058883;28;20832;-78
2021/06/11 07:12:56;;;;;;;27.80;17.70;;;22.10;99.90;;;;;;5045626;28;20151;-79
2021/06/11 07:15:23;;;;;;;26.95;17.02;;;22.30;99.90;;;;;;5044244;28;20072;-79
2021/06/11 07:17:50;;;;;;;23.80;16.60;;;22.40;99.90;;;;;;5068063;28;20044;-79
2021/06/11 07:20:18;;;;;;;27.08;18.60;;;22.50;99.90;;;;;;5045065;28;20045;-79
2021/06/11 07:22:44;;;;;;;26.52;17.92;;;22.60;99.90;;;;;;5046507;28;20493;-79
2021/06/11 07:25:12;;;;;;;31.10;18.52;;;22.70;99.90;;;;;;5051342;28;20055;-79
2021/06/11 07:27:38;;;;;;;24.50;16.83;;;22.60;99.90;;;;;;5077080;28;20080;-79
2021/06/11 07:30:08;;;;;;;23.05;16.38;;;22.60;99.90;;;;;;5046511;28;20045;-79
2021/06/11 07:32:42;;;;;;;26.85;17.83;;;22.70;99.90;;;;;;5076569;28;20052;-79
2021/06/11 07:35:10;;;;;;;26.98;18.40;;;22.80;99.90;;;;;;5045914;28;20496;-79
2021/06/11 07:37:37;;;;;;;24.45;16.58;;;22.90;99.90;;;;;;5045865;28;20052;-79
2021/06/11 07:40:06;;;;;;;26.15;18.65;;;23.00;99.90;;;;;;5043554;28;20045;-79
2021/06/11 07:42:33;;;;;;;24.00;17.30;;;23.10;99.90;;;;;;5042600;28;20127;-79
2021/06/11 07:45:00;;;;;;;30.23;19.27;;;23.20;99.90;;;;;;5042812;28;20106;-79
2021/06/11 07:47:26;;;;;;;23.98;17.55;;;23.40;99.90;;;;;;5037356;28;20052;-79
2021/06/11 07:49:53;;;;;;;26.05;18.05;;;23.50;99.90;;;;;;5044759;28;20929;-79
2021/06/11 07:52:20;;;;;;;25.20;17.90;;;23.50;99.90;;;;;;5042211;28;20040;-79
2021/06/11 07:54:47;;;;;;;27.75;18.67;;;23.60;99.90;;;;;;5071200;28;20378;-79
2021/06/11 07:57:14;;;;;;;25.60;18.52;;;23.80;99.90;;;;;;5037024;28;20049;-79
2021/06/11 07:59:42;;;;;;;21.85;16.73;;;23.90;99.90;;;;;;5045397;28;20045;-79
2021/06/11 08:02:10;;;;;;;21.90;17.30;;;24.10;99.90;;;;;;5046858;28;20053;-79
2021/06/11 08:04:38;;;;;;;23.70;16.92;;;24.30;99.90;;;;;;5041262;28;20066;-79
2021/06/11 08:07:05;;;;;;;22.42;16.73;;;24.50;99.90;;;;;;5047939;28;20155;-80
2021/06/11 08:09:33;;;;;;;28.38;17.67;;;24.50;99.90;;;;;;5043543;28;20548;-79
2021/06/11 08:12:00;;;;;;;23.23;17.20;;;24.50;99.90;;;;;;5046517;28;20060;-80
2021/06/11 08:14:27;;;;;;;22.83;17.27;;;24.40;99.90;;;;;;5047295;28;20136;-80
2021/06/11 08:16:54;;;;;;;23.38;17.27;;;24.30;99.90;;;;;;5043370;28;20055;-79
2021/06/11 08:19:21;;;;;;;24.23;18.05;;;24.40;99.90;;;;;;5062256;28;20496;-80
2021/06/11 08:21:47;;;;;;;25.17;17.90;;;24.40;99.90;;;;;;5042367;28;20059;-79
2021/06/11 08:24:14;;;;;;;26.73;18.10;;;24.50;99.90;;;;;;5043727;28;20069;-80
2021/06/11 08:26:41;;;;;;;22.25;16.83;;;24.50;99.90;;;;;;5049575;28;20496;-80
2021/06/11 08:29:08;;;;;;;25.27;16.55;;;24.40;99.90;;;;;;5049038;28;20893;-79
2021/06/11 08:31:35;;;;;;;23.90;17.67;;;24.60;99.90;;;;;;5045897;28;20052;-79
2021/06/11 08:34:02;;;;;;;20.30;16.00;;;24.60;99.90;;;;;;5057818;28;20068;-79
2021/06/11 08:36:29;;;;;;;21.77;15.65;;;24.50;99.80;;;;;;5047250;28;20056;-79
2021/06/11 08:38:56;;;;;;;18.20;15.32;;;24.40;99.90;;;;;;5054420;28;20059;-80
2021/06/11 08:41:24;;;;;;;19.33;13.40;;;24.30;99.90;;;;;;5054431;28;20055;-79
2021/06/11 08:43:53;;;;;;;18.58;14.13;;;24.20;99.90;;;;;;5046055;28;20053;-79
2021/06/11 08:46:21;;;;;;;20.77;13.73;;;24.10;99.90;;;;;;5061725;28;20441;-79
2021/06/11 08:48:48;;;;;;;19.35;12.85;;;24.30;99.90;;;;;;5047143;28;20044;-80
2021/06/11 08:51:17;;;;;;;18.90;13.38;;;24.40;99.90;;;;;;5040646;28;20053;-79
2021/06/11 08:53:45;;;;;;;20.95;14.73;;;24.50;99.90;;;;;;5044533;28;20053;-79
2021/06/11 08:56:13;;;;;;;21.92;14.15;;;24.50;99.60;;;;;;5049064;28;20045;-79
2021/06/11 08:58:40;;;;;;;23.13;15.60;;;24.50;99.90;;;;;;5045632;28;20067;-80
2021/06/11 09:01:07;;;;;;;28.42;15.15;;;24.50;99.80;;;;;;5053458;28;20084;-79
2021/06/11 09:03:49;;;;;;;27.17;16.23;;;24.60;99.70;;;;;;5047744;28;20160;-79
2021/06/11 09:06:17;;;;;;;28.70;16.55;;;24.70;99.30;;;;;;5045345;28;20108;-79
2021/06/11 09:08:58;;;;;;;24.67;15.70;;;24.70;99.40;;;;;;5047559;28;20063;-79
2021/06/11 09:11:27;;;;;;;28.08;16.73;;;24.60;99.40;;;;;;5051727;28;20053;-78
2021/06/11 09:14:00;;;;;;;27.42;17.13;;;24.40;99.10;;;;;;5045039;28;20038;-78
2021/06/11 09:16:29;;;;;;;23.40;15.35;;;24.20;99.90;;;;;;5046555;28;20112;-79
2021/06/11 09:18:58;;;;;;;30.90;18.15;;;24.30;99.90;;;;;;5045622;28;20053;-78
2021/06/11 09:21:39;;;;;;;29.17;16.15;;;24.50;99.90;;;;;;5063323;28;20041;-79
2021/06/11 09:24:21;;;;;;;31.52;17.80;;;24.80;99.70;;;;;;5061240;28;20049;-78
2021/06/11 09:26:57;;;;;;;29.83;17.92;;;25.00;99.10;;;;;;5060764;28;20159;-79
2021/06/11 09:29:42;;;;;;;35.85;18.20;;;25.00;99.10;;;;;;5063506;28;20052;-78
2021/06/11 09:32:22;;;;;;;30.27;16.17;;;25.00;99.10;;;;;;5044934;28;20057;-79
2021/06/11 09:34:57;;;;;;;32.72;17.65;;;25.20;99.30;;;;;;5063230;28;20485;-78
2021/06/11 09:37:27;;;;;;;33.58;17.50;;;25.50;99.10;;;;;;5063365;28;20117;-78
2021/06/11 09:39:56;;;;;;;33.70;17.58;;;25.70;98.40;;;;;;5075873;28;20085;-79
2021/06/11 09:42:33;;;;;;;36.28;18.27;;;25.80;97.70;;;;;;5045949;28;20050;-79
2021/06/11 09:45:01;;;;;;;33.53;18.45;;;25.90;97.80;;;;;;5046094;28;20048;-78
2021/06/11 09:47:41;;;;;;;36.88;19.98;;;26.10;97.50;;;;;;5045499;28;20053;-78
2021/06/11 09:50:17;;;;;;;35.17;18.42;;;26.20;97.30;;;;;;5044517;28;20068;-78
2021/06/11 09:53:00;;;;;;;;;;;26.40;97.40;;;;;;5055119;28;20143;-79
2021/06/11 09:55:40;;;;;;;31.45;17.73;;;26.60;96.10;;;;;;5075886;28;19920;-78
2021/06/11 09:58:15;;;;;;;34.50;18.65;;;26.80;95.60;;;;;;5061973;28;20077;-79
2021/06/11 10:00:53;;;;;;;32.45;17.60;;;26.90;95.60;;;;;;5046100;28;20049;-78
2021/06/11 10:03:21;;;;;;;38.10;19.48;;;27.00;96.00;;;;;;5047351;28;20125;-79
2021/06/11 10:05:50;;;;;;;39.63;20.30;;;27.20;95.00;;;;;;5079749;28;20073;-79
2021/06/11 10:08:18;;;;;;;37.95;21.30;;;27.30;94.60;;;;;;5050737;28;20483;-79
2021/06/11 10:10:46;;;;;;;39.70;20.17;;;27.50;94.70;;;;;;5042688;28;20105;-79
2021/06/11 10:13:15;;;;;;;43.47;22.80;;;27.40;94.20;;;;;;5061411;28;20850;-79
2021/06/11 10:15:44;;;;;;;37.60;20.92;;;27.30;94.60;;;;;;5044083;28;20683;-79
2021/06/11 10:18:12;;;;;;;39.45;21.83;;;27.50;94.60;;;;;;5035161;28;20480;-79
2021/06/11 10:20:41;;;;;;;36.97;20.48;;;27.80;94.10;;;;;;5043027;28;20053;-79
2021/06/11 10:23:14;;;;;;;38.92;21.35;;;27.90;93.30;;;;;;5046469;28;20408;-79
2021/06/11 10:25:43;;;;;;;33.83;18.90;;;28.00;94.40;;;;;;5042915;28;20053;-79
2021/06/11 10:28:22;;;;;;;38.25;20.85;;;28.20;93.90;;;;;;5045490;28;20104;-78
2021/06/11 10:30:49;;;;;;;33.65;19.83;;;28.40;93.90;;;;;;5042419;28;20083;-78
2021/06/11 10:33:16;;;;;;;38.08;19.83;;;28.40;92.40;;;;;;5046107;28;20139;-78
2021/06/11 10:35:46;;;;;;;34.03;18.70;;;28.40;92.50;;;;;;5047638;28;20120;-78
2021/06/11 10:38:33;;;;;;;34.40;19.25;;;28.60;92.60;;;;;;5058016;28;20049;-78
2021/06/11 10:41:03;;;;;;;30.08;18.40;;;29.00;91.80;;;;;;5063409;28;20045;-78
2021/06/11 10:43:39;;;;;;;27.35;16.20;;;29.20;90.80;;;;;;5033732;28;20053;-78
2021/06/11 10:46:24;;;;;;;24.58;15.35;;;29.40;90.50;;;;;;5051384;28;20049;-79
2021/06/11 10:48:56;;;;;;;23.63;14.70;;;29.30;89.00;;;;;;5050299;28;20044;-78
2021/06/11 10:51:38;;;;;;;;;;;29.30;88.70;;;;;;5043230;28;20076;-79
2021/06/11 10:54:17;;;;;;;25.00;15.63;;;29.30;89.20;;;;;;5058299;28;20299;-78
2021/06/11 10:57:16;;;;;;;24.35;15.48;;;29.10;89.10;;;;;;5044238;28;20051;-78
2021/06/11 10:59:48;;;;;;;20.27;14.60;;;29.30;89.20;;;;;;5037358;28;20447;-79
2021/06/11 11:02:19;;;;;;;21.70;13.50;;;29.50;88.40;;;;;;5034978;28;20083;-78
2021/06/11 11:04:48;;;;;;;23.63;16.95;;;29.90;87.60;;;;;;5041490;28;20136;-79
2021/06/11 11:07:26;;;;;;;19.80;14.20;;;30.00;85.60;;;;;;5041290;28;20041;-79
2021/06/11 11:09:58;;;;;;;23.35;15.80;;;29.90;86.20;;;;;;5075798;28;20053;-79
2021/06/11 11:12:35;;;;;;;20.88;14.75;;;29.80;85.30;;;;;;5048346;28;20067;-78
2021/06/11 11:15:03;;;;;;;20.83;15.13;;;29.70;86.40;;;;;;5044866;28;20056;-78
2021/06/11 11:17:32;;;;;;;21.38;15.63;;;29.80;85.30;;;;;;5041178;28;20832;-79
2021/06/11 11:20:02;;;;;;;19.83;15.32;;;29.80;84.90;;;;;;5059807;28;20087;-79
2021/06/11 11:22:35;;;;;;;19.02;14.48;;;29.60;84.80;;;;;;5042553;28;20079;-78
2021/06/11 11:25:15;;;;;;;19.45;13.57;;;29.60;83.80;;;;;;5043898;28;20044;-79
2021/06/11 11:27:48;;;;;;;17.05;13.05;;;29.60;87.90;;;;;;5041423;28;20055;-79
2021/06/11 11:30:15;;;;;;;16.15;12.90;;;29.90;86.10;;;;;;5043702;28;20045;-79
2021/06/11 11:32:42;;;;;;;16.70;12.70;;;30.30;84.10;;;;;;5044298;28;20382;-80
2021/06/11 11:35:09;;;;;;;15.15;12.18;;;30.40;83.30;;;;;;5041191;28;20091;-79
2021/06/11 11:37:36;;;;;;;16.42;13.38;;;30.20;82.00;;;;;;5040511;28;20053;-79
2021/06/11 11:40:04;;;;;;;16.50;13.73;;;30.20;81.60;;;;;;5041970;28;20056;-79
2021/06/11 11:42:30;;;;;;;20.65;14.20;;;29.90;82.20;;;;;;5047293;28;20056;-78
2021/06/11 11:44:57;;;;;;;15.05;12.88;;;29.70;82.50;;;;;;5043205;28;20084;-78
2021/06/11 11:47:24;;;;;;;16.40;13.02;;;29.40;82.20;;;;;;5074670;28;20041;-79
2021/06/11 11:49:50;;;;;;;14.50;11.82;;;29.20;82.30;;;;;;5048884;28;20065;-78
2021/06/11 11:52:30;;;;;;;15.60;11.70;;;28.80;84.30;;;;;;5042868;28;20583;-78
2021/06/11 11:54:57;;;;;;;14.68;10.75;;;28.70;85.10;;;;;;5042896;28;20064;-78
2021/06/11 11:57:24;;;;;;;12.57;9.98;;;28.50;85.60;;;;;;5040136;28;20049;-79
2021/06/11 11:59:51;;;;;;;13.38;9.95;;;28.30;84.20;;;;;;5038609;28;20053;-78
2021/06/11 12:02:29;;;;;;;16.20;9.30;;;28.20;85.40;;;;;;5072277;28;20053;-78
2021/06/11 12:05:01;;;;;;;13.55;11.27;;;28.40;89.80;;;;;;5031267;28;20079;-79
2021/06/11 12:07:28;;;;;;;12.52;10.95;;;29.20;84.20;;;;;;5029442;28;20055;-80
2021/06/11 12:09:58;;;;;;;16.05;9.70;;;30.00;83.30;;;;;;5010086;28;20105;-79
2021/06/11 12:12:28;;;;;;;15.25;9.40;;;30.80;84.80;;;;;;5029033;28;20056;-79
2021/06/11 12:14:59;;;;;;;14.30;12.15;;;31.80;81.60;;;;;;5029413;28;20056;-79
2021/06/11 12:17:36;;;;;;;15.60;12.10;;;32.70;74.30;;;;;;5045036;28;20052;-79
2021/06/11 12:20:04;;;;;;;19.15;9.70;;;33.20;73.50;;;;;;5055838;28;20044;-80
2021/06/11 12:22:33;;;;;;;12.77;10.52;;;33.10;71.90;;;;;;5031156;28;20121;-80
2021/06/11 12:25:00;;;;;;;10.48;8.70;;;33.00;72.30;;;;;;5038400;28;20048;-78
2021/06/11 12:27:27;;;;;;;11.65;9.18;;;33.30;73.70;;;;;;5047362;28;20594;-79
2021/06/11 12:29:54;;;;;;;13.60;11.10;;;33.30;72.80;;;;;;5041373;28;20049;-78
2021/06/11 12:32:26;;;;;;;13.00;11.00;;;33.60;69.00;;;;;;5031210;28;20060;-78
2021/06/11 12:34:54;;;;;;;15.75;10.45;;;33.90;69.40;;;;;;5024474;28;20074;-79
2021/06/11 12:37:21;;;;;;;14.63;10.70;;;34.50;68.70;;;;;;5064329;28;20115;-79
2021/06/11 12:39:51;;;;;;;13.43;9.75;;;35.00;67.60;;;;;;5047212;28;20527;-79